Time;durP1;ratioP1;P1;durP2;ratioP2;P2;SDS_P1;SDS_P2;PMS_P1;PMS_P2;Temp;Humidity;BMP_temperature;BMP_pressure;BME280_temperature;BME280_humidity;BME280_pressure;Samples;Min_cycle;Max_cycle;Signal;HPM_P1;HPM_P2
2022/04/18 00:00:43;;;;;;;4.78;1.75;;;1.60;99.90;1.70;99032.00;;;;4617051;30;87422;-62
2022/04/18 00:03:09;;;;;;;4.45;1.80;;;1.60;99.90;1.60;99027.00;;;;4634509;30;86214;-61
2022/04/18 00:05:35;;;;;;;2.97;1.55;;;1.50;99.90;1.60;99031.00;;;;4632619;30;87144;-63
2022/04/18 00:08:03;;;;;;;4.32;1.75;;;1.50;99.90;1.60;99025.00;;;;4632375;30;87766;-63
2022/04/18 00:10:29;;;;;;;3.92;1.80;;;1.50;99.90;1.60;99024.00;;;;4631944;30;87968;-63
2022/04/18 00:12:56;;;;;;;3.50;1.60;;;1.50;99.90;1.60;99018.00;;;;4636803;30;87114;-63
2022/04/18 00:15:23;;;;;;;2.25;1.50;;;1.50;99.90;1.60;99014.00;;;;4637180;30;88042;-63
2022/04/18 00:17:49;;;;;;;6.63;1.80;;;1.50;99.90;1.60;99016.00;;;;4631883;30;87601;-63
2022/04/18 00:20:16;;;;;;;5.18;1.85;;;1.50;99.90;1.60;99020.00;;;;4634285;30;88428;-63
2022/04/18 00:22:42;;;;;;;4.00;1.67;;;1.50;99.90;1.50;99010.00;;;;4635587;30;86991;-63
2022/04/18 00:25:09;;;;;;;5.18;1.60;;;1.40;99.90;1.40;99007.00;;;;4641754;30;87092;-62
2022/04/18 00:27:37;;;;;;;5.00;1.75;;;1.30;99.90;1.40;99004.00;;;;4634530;30;89504;-63
2022/04/18 00:30:03;;;;;;;4.40;1.52;;;1.30;99.90;1.40;99010.00;;;;4635700;30;87786;-63
2022/04/18 00:32:30;;;;;;;2.63;1.60;;;1.30;99.90;1.40;99000.00;;;;4634204;30;87152;-63
2022/04/18 00:34:57;;;;;;;4.25;1.60;;;1.30;99.90;1.40;99013.00;;;;4634064;30;88673;-63
2022/04/18 00:37:23;;;;;;;6.18;1.90;;;1.30;99.90;1.30;99010.00;;;;4634481;30;87686;-63
2022/04/18 00:39:49;;;;;;;6.68;1.60;;;1.20;99.90;1.30;99005.00;;;;4635114;30;88079;-63
2022/04/18 00:42:16;;;;;;;4.47;1.80;;;1.30;99.90;1.30;99009.00;;;;4634903;30;88190;-63
2022/04/18 00:44:42;;;;;;;5.07;1.58;;;1.30;99.90;1.30;99010.00;;;;4634874;30;87007;-63
2022/04/18 00:47:08;;;;;;;3.75;1.77;;;1.20;99.90;1.20;99010.00;;;;4634480;30;87676;-63
2022/04/18 00:49:35;;;;;;;3.85;1.63;;;1.10;99.90;1.10;99008.00;;;;4635217;30;87535;-62
2022/04/18 00:52:04;;;;;;;4.82;1.50;;;1.10;99.90;1.10;99014.00;;;;4634559;30;86438;-63
2022/04/18 00:54:34;;;;;;;4.15;1.70;;;1.00;99.90;1.00;99006.00;;;;4633795;30;87383;-63
2022/04/18 00:57:02;;;;;;;2.83;1.40;;;1.00;99.90;1.00;99003.00;;;;4633878;30;87536;-64
2022/04/18 00:59:32;;;;;;;4.00;1.60;;;1.00;99.90;1.00;99000.00;;;;4633385;30;87959;-65
2022/04/18 01:01:58;;;;;;;2.13;1.35;;;0.90;99.90;1.00;99003.00;;;;4634640;30;87104;-63
2022/04/18 01:04:25;;;;;;;4.30;1.60;;;0.90;99.90;0.90;99008.00;;;;4633369;30;87137;-63
2022/04/18 01:06:51;;;;;;;5.03;1.80;;;0.90;99.90;0.90;99003.00;;;;4633558;30;87715;-63
2022/04/18 01:09:18;;;;;;;5.15;1.80;;;0.80;99.90;0.90;99002.00;;;;4633808;30;87312;-64
2022/04/18 01:11:44;;;;;;;2.58;1.67;;;0.90;99.90;0.90;98996.00;;;;4636325;30;87090;-64
2022/04/18 01:14:25;;;;;;;5.97;1.93;;;0.80;99.90;0.90;99006.00;;;;4640902;30;87389;-63
2022/04/18 01:17:04;;;;;;;5.93;1.85;;;0.80;99.90;0.90;99002.00;;;;4633895;30;86611;-62
2022/04/18 01:19:53;;;;;;;3.58;2.10;;;0.80;99.90;0.90;98993.00;;;;4633869;30;87807;-62
2022/04/18 01:22:42;;;;;;;5.22;1.88;;;0.80;99.90;0.90;98998.00;;;;4624697;30;87068;-63
2022/04/18 01:31:01;;;;;;;3.45;1.70;;;0.70;99.90;0.80;98997.00;;;;4632971;30;89448;-64
2022/04/18 01:33:28;;;;;;;2.75;1.60;;;0.70;99.90;0.70;98982.00;;;;4633086;30;88172;-63
2022/04/18 01:35:54;;;;;;;3.58;1.88;;;0.70;99.90;0.70;98989.00;;;;4633788;30;86965;-62
2022/04/18 01:38:21;;;;;;;4.35;1.85;;;0.70;99.90;0.70;98980.00;;;;4632517;30;87490;-63
2022/04/18 01:40:47;;;;;;;5.32;1.85;;;0.70;99.90;0.70;98986.00;;;;4633827;30;87294;-62
2022/04/18 01:43:13;;;;;;;5.88;1.80;;;0.60;99.90;0.80;99001.00;;;;4633722;30;86354;-64
2022/04/18 01:45:41;;;;;;;6.60;2.13;;;0.60;99.90;0.70;98991.00;;;;4632704;30;87127;-62
2022/04/18 01:48:20;;;;;;;6.47;1.90;;;0.70;99.90;0.70;98993.00;;;;4633461;30;87031;-62
2022/04/18 01:50:46;;;;;;;3.85;1.83;;;0.60;99.90;0.70;98995.00;;;;4633816;30;88071;-63
2022/04/18 01:53:12;;;;;;;5.65;1.85;;;0.60;99.90;0.60;98989.00;;;;4633472;30;87389;-64
2022/04/18 01:55:40;;;;;;;3.13;1.73;;;0.60;99.90;0.70;99007.00;;;;4646419;30;87530;-63
2022/04/18 01:58:08;;;;;;;4.03;1.70;;;0.60;99.90;0.70;99008.00;;;;4632665;30;87927;-63
2022/04/18 02:00:34;;;;;;;2.40;1.60;;;0.60;99.90;0.70;99014.00;;;;4632574;30;87348;-62
2022/04/18 02:03:01;;;;;;;4.45;1.83;;;0.60;99.90;0.60;99007.00;;;;4632629;30;87809;-63
2022/04/18 02:05:27;;;;;;;5.30;1.95;;;0.60;99.90;0.60;99000.00;;;;4632760;30;87042;-63
2022/04/18 02:07:53;;;;;;;3.50;1.80;;;0.50;99.90;0.60;99000.00;;;;4632864;30;87249;-62
2022/04/18 02:10:20;;;;;;;7.40;2.00;;;0.50;99.90;0.60;98992.00;;;;4633057;30;87761;-63
2022/04/18 02:12:47;;;;;;;5.72;2.10;;;0.50;99.90;0.60;98986.00;;;;4635162;30;87381;-63
2022/04/18 02:15:15;;;;;;;6.22;2.30;;;0.50;99.90;0.60;98999.00;;;;4633070;30;87876;-63
2022/04/18 02:18:01;;;;;;;6.15;2.10;;;0.50;99.90;0.60;99001.00;;;;4633009;30;87671;-63
2022/04/18 02:20:27;;;;;;;5.57;1.98;;;0.50;99.90;0.50;98995.00;;;;4632768;30;87832;-62
2022/04/18 02:22:56;;;;;;;5.40;2.13;;;0.50;99.90;0.60;98994.00;;;;4633549;30;87096;-63
2022/04/18 02:25:24;;;;;;;6.15;2.40;;;0.50;99.90;0.60;99002.00;;;;4637947;30;86961;-63
2022/04/18 02:27:52;;;;;;;4.45;2.08;;;0.50;99.90;0.60;98991.00;;;;4617846;30;90958;-63
2022/04/18 02:30:18;;;;;;;5.50;2.13;;;0.50;99.90;0.50;98988.00;;;;4618096;30;87245;-61
2022/04/18 02:32:47;;;;;;;5.03;2.28;;;0.50;99.90;0.60;98994.00;;;;4618816;30;86382;-63
2022/04/18 02:35:22;;;;;;;6.80;2.60;;;0.50;99.90;0.60;98990.00;;;;4631936;30;86997;-63
2022/04/18 02:37:54;;;;;;;7.15;2.53;;;0.50;99.90;0.70;98999.00;;;;4632453;30;87612;-63
2022/04/18 02:40:24;;;;;;;4.50;2.35;;;0.50;99.90;0.60;98993.00;;;;4631685;30;87946;-63
2022/04/18 02:42:52;;;;;;;7.68;2.95;;;0.50;99.90;0.60;99001.00;;;;4645912;30;87023;-63
2022/04/18 02:45:19;;;;;;;7.50;2.95;;;0.50;99.90;0.60;99003.00;;;;4632850;30;87173;-62
2022/04/18 02:48:05;;;;;;;6.28;2.83;;;0.50;99.90;0.60;99000.00;;;;4632352;30;87654;-61
2022/04/18 02:50:34;;;;;;;4.68;2.60;;;0.50;99.90;0.60;98998.00;;;;4632042;30;87325;-62
2022/04/18 02:53:01;;;;;;;7.75;2.67;;;0.50;99.90;0.60;98999.00;;;;4632576;30;87726;-64
2022/04/18 02:55:42;;;;;;;7.50;2.40;;;0.60;99.90;0.70;99010.00;;;;4631730;30;87465;-64
2022/04/18 02:58:09;;;;;;;5.47;2.72;;;0.50;99.90;0.70;98997.00;;;;4632312;30;86378;-63
2022/04/18 03:00:36;;;;;;;8.25;3.30;;;0.50;99.90;0.70;99001.00;;;;4632167;30;87211;-64
2022/04/18 03:03:03;;;;;;;7.07;2.78;;;0.60;99.90;0.70;98998.00;;;;4620057;30;87055;-63
2022/04/18 03:05:31;;;;;;;5.80;2.60;;;0.60;99.90;0.80;98990.00;;;;4631567;30;89128;-63
2022/04/18 03:07:57;;;;;;;7.47;3.03;;;0.60;99.90;0.80;98988.00;;;;4631699;30;87701;-62
2022/04/18 03:11:10;;;;;;;7.50;2.70;;;0.60;99.90;1.20;98973.00;;;;4632124;30;87354;-64
2022/04/18 03:13:13;;;;;;;4.50;2.70;;;0.90;99.90;2.40;98977.00;;;;4626518;30;87023;-64
2022/04/18 03:15:39;;;;;;;6.78;2.30;;;1.60;99.90;3.20;98976.00;;;;4632576;30;87095;-63
2022/04/18 03:18:06;;;;;;;9.15;3.20;;;2.10;99.90;3.90;98976.00;;;;4616956;30;87180;-63
2022/04/18 03:20:32;;;;;;;6.13;2.50;;;2.70;99.90;4.70;98976.00;;;;4632424;30;87343;-64
2022/04/18 03:22:58;;;;;;;8.43;3.00;;;3.20;99.90;5.20;98976.00;;;;4640572;30;86241;-64
2022/04/18 03:25:51;;;;;;;7.25;2.65;;;3.60;99.90;5.50;98982.00;;;;4625297;30;87024;-62
2022/04/18 03:28:18;;;;;;;6.35;3.10;;;4.10;99.90;5.80;98985.00;;;;4646233;30;89512;-65
2022/04/18 03:30:45;;;;;;;6.95;2.45;;;4.30;99.90;5.80;98979.00;;;;4642850;30;88128;-64
2022/04/18 03:33:11;;;;;;;7.15;2.55;;;4.30;99.90;6.10;98985.00;;;;4632668;30;87632;-64
2022/04/18 03:35:37;;;;;;;5.85;2.72;;;4.50;99.90;6.40;98983.00;;;;4631001;30;87139;-64
2022/04/18 03:40:48;;;;;;;9.93;3.08;;;4.60;99.90;6.50;98985.00;;;;4632387;30;87240;-64
2022/04/18 03:43:15;;;;;;;9.95;3.00;;;4.60;99.90;6.40;98972.00;;;;4646333;30;87573;-64
2022/04/18 03:45:41;;;;;;;10.30;3.08;;;4.50;99.90;6.40;98977.00;;;;4631377;30;87197;-64
2022/04/18 03:48:07;;;;;;;10.15;2.85;;;4.60;99.90;6.70;98976.00;;;;4617378;30;87246;-64
2022/04/18 03:50:33;;;;;;;8.75;2.58;;;4.80;99.90;6.90;98979.00;;;;4632759;30;87251;-64
2022/04/18 03:53:00;;;;;;;5.95;2.95;;;4.90;99.90;7.10;98984.00;;;;4631206;30;87412;-63
2022/04/18 03:55:33;;;;;;;9.93;2.60;;;5.20;99.90;7.20;98980.00;;;;4630647;30;88432;-64
2022/04/18 03:58:06;;;;;;;8.07;2.80;;;5.20;99.90;7.20;98972.00;;;;4631467;30;89605;-64
2022/04/18 04:00:35;;;;;;;7.05;2.58;;;5.20;99.90;7.20;98979.00;;;;4630959;30;87513;-63
2022/04/18 04:03:02;;;;;;;7.88;2.75;;;5.40;99.90;7.40;98974.00;;;;4631392;30;87754;-63
2022/04/18 04:05:38;;;;;;;8.73;2.85;;;5.60;99.90;7.40;98968.00;;;;4631320;30;87398;-63
2022/04/18 04:08:06;;;;;;;6.85;3.70;;;5.70;99.90;7.40;98968.00;;;;4630906;30;87830;-64
2022/04/18 04:10:33;;;;;;;5.53;2.78;;;5.60;99.90;7.40;98978.00;;;;4630420;30;87506;-61
2022/04/18 04:13:02;;;;;;;6.45;3.40;;;5.60;99.90;7.20;98986.00;;;;4638753;30;86907;-62
2022/04/18 04:15:51;;;;;;;8.35;3.20;;;5.50;99.90;7.10;98969.00;;;;4634262;30;87038;-62
2022/04/18 04:18:23;;;;;;;11.13;3.10;;;5.40;99.90;7.10;98968.00;;;;4630428;30;87870;-63
2022/04/18 04:20:51;;;;;;;9.68;3.88;;;5.40;99.90;7.20;98980.00;;;;4630628;30;89606;-64
2022/04/18 04:23:18;;;;;;;9.82;3.53;;;5.40;99.90;7.60;98979.00;;;;4638204;30;86959;-64
2022/04/18 04:25:47;;;;;;;7.10;3.28;;;5.60;99.90;7.60;98964.00;;;;4645260;30;87205;-63
2022/04/18 04:28:17;;;;;;;11.23;3.72;;;5.80;99.90;7.30;98964.00;;;;4631131;30;87838;-64
2022/04/18 04:30:44;;;;;;;8.15;3.63;;;5.60;99.90;7.30;98963.00;;;;4630425;30;88721;-64
2022/04/18 04:33:11;;;;;;;15.05;3.80;;;5.60;99.90;7.20;98962.00;;;;4630639;30;87070;-63
2022/04/18 04:35:37;;;;;;;10.93;3.90;;;5.60;99.90;7.20;98965.00;;;;4630509;30;87294;-65
2022/04/18 04:38:08;;;;;;;8.73;3.85;;;5.60;99.90;7.20;98970.00;;;;4630050;30;86921;-63
2022/04/18 04:40:44;;;;;;;8.98;3.78;;;5.50;99.90;7.20;98968.00;;;;4616696;30;87063;-64
2022/04/18 04:43:12;;;;;;;7.70;3.65;;;5.50;99.90;7.00;98966.00;;;;4630535;30;87159;-63
2022/04/18 04:45:44;;;;;;;7.55;3.95;;;5.40;99.90;7.20;98969.00;;;;4629777;30;88213;-64
2022/04/18 04:48:28;;;;;;;9.93;4.13;;;5.50;99.90;6.90;98968.00;;;;4621487;30;87738;-63
2022/04/18 04:50:59;;;;;;;13.50;4.28;;;5.40;99.90;7.20;98973.00;;;;4618018;30;87361;-64
2022/04/18 04:53:26;;;;;;;8.35;4.43;;;5.60;99.90;7.10;98983.00;;;;4641938;30;87074;-63
2022/04/18 04:55:54;;;;;;;8.80;3.80;;;5.60;99.90;7.10;98966.00;;;;4629872;30;87090;-64
2022/04/18 04:58:21;;;;;;;9.50;4.07;;;5.50;99.90;6.90;98969.00;;;;4644373;30;87795;-63
2022/04/18 05:00:53;;;;;;;10.32;4.78;;;5.40;99.90;6.20;98978.00;;;;4629784;30;87528;-64
2022/04/18 05:03:42;;;;;;;7.15;4.03;;;5.10;99.90;6.00;98966.00;;;;4626765;30;86933;-63
2022/04/18 05:06:11;;;;;;;12.55;4.53;;;5.10;99.90;5.50;98972.00;;;;4631021;30;87391;-55
2022/04/18 05:08:46;;;;;;;9.98;4.20;;;5.00;99.90;5.40;98967.00;;;;4634022;30;87807;-56
2022/04/18 05:11:13;;;;;;;10.88;4.35;;;4.90;99.90;5.30;98964.00;;;;4633017;30;88330;-57
2022/04/18 05:13:46;;;;;;;11.27;4.40;;;5.00;99.90;5.40;98963.00;;;;4635554;30;87083;-58
2022/04/18 05:16:14;;;;;;;6.72;4.43;;;5.00;99.90;5.40;98966.00;;;;4633774;30;86975;-58
2022/04/18 05:19:06;;;;;;;12.80;4.55;;;5.00;99.90;5.30;98987.00;;;;4606524;30;86963;-57
2022/04/18 05:21:34;;;;;;;9.40;4.93;;;5.00;99.90;5.10;98971.00;;;;4661061;30;87497;-57
2022/04/18 05:24:07;;;;;;;11.10;4.57;;;4.80;99.90;5.20;98971.00;;;;4633430;30;87005;-57
2022/04/18 05:26:33;;;;;;;12.60;4.60;;;4.90;99.90;5.30;98965.00;;;;4634396;30;87032;-57
2022/04/18 05:29:00;;;;;;;9.90;4.75;;;5.00;99.90;5.40;98975.00;;;;4637001;30;86926;-57
2022/04/18 05:31:26;;;;;;;9.20;4.70;;;5.00;99.90;5.40;98969.00;;;;4644057;30;87034;-58
2022/04/18 05:33:53;;;;;;;6.72;4.25;;;5.10;99.90;5.50;98972.00;;;;4632825;30;87101;-57
2022/04/18 05:36:30;;;;;;;10.48;4.10;;;5.20;99.90;5.60;98968.00;;;;4629643;30;88073;-56
2022/04/18 05:38:57;;;;;;;13.43;4.20;;;5.30;99.90;5.50;98968.00;;;;4631957;30;89205;-58
2022/04/18 05:41:32;;;;;;;11.32;4.72;;;5.20;99.90;5.40;98971.00;;;;4633180;30;87019;-58
2022/04/18 05:43:58;;;;;;;5.80;3.78;;;5.00;99.90;5.20;98986.00;;;;4633821;30;86977;-57
2022/04/18 05:46:31;;;;;;;10.98;4.47;;;4.90;99.90;5.30;98972.00;;;;4632357;30;87228;-57
2022/04/18 05:48:58;;;;;;;8.82;4.03;;;4.90;99.90;5.40;98965.00;;;;4633237;30;87597;-58
2022/04/18 05:51:24;;;;;;;6.65;3.78;;;5.00;99.90;5.40;98970.00;;;;4634000;30;87339;-58
2022/04/18 05:53:51;;;;;;;10.00;4.32;;;5.00;99.90;5.40;98977.00;;;;4633451;30;86859;-60
2022/04/18 05:56:40;;;;;;;8.90;3.50;;;5.10;99.90;5.30;98971.00;;;;4633008;30;87392;-55
2022/04/18 05:59:36;;;;;;;8.90;3.65;;;5.00;99.90;5.30;98982.00;;;;4625786;30;88624;-58
2022/04/18 06:02:08;;;;;;;6.90;3.42;;;4.90;99.90;5.40;98971.00;;;;4631657;30;88448;-55
2022/04/18 06:04:36;;;;;;;7.18;3.30;;;5.00;99.90;5.50;98966.00;;;;4638447;30;87071;-56
2022/04/18 06:07:17;;;;;;;8.20;3.28;;;5.10;99.90;5.40;98969.00;;;;4633490;30;86955;-58
2022/04/18 06:09:49;;;;;;;6.72;3.72;;;5.10;99.90;5.50;98970.00;;;;4632122;30;87706;-58
2022/04/18 06:12:21;;;;;;;6.22;3.05;;;5.10;99.90;5.40;98962.00;;;;4636621;30;87542;-56
2022/04/18 06:14:49;;;;;;;12.05;3.03;;;5.10;99.90;5.50;98965.00;;;;4645707;30;86917;-58
2022/04/18 06:17:15;;;;;;;6.60;3.13;;;5.10;99.90;5.40;98964.00;;;;4631818;30;87041;-56
2022/04/18 06:19:42;;;;;;;7.47;3.03;;;5.10;99.90;5.60;98964.00;;;;4632303;30;88387;-57
2022/04/18 06:22:09;;;;;;;7.30;3.42;;;5.20;99.90;5.80;98969.00;;;;4618559;30;87830;-57
2022/04/18 06:24:35;;;;;;;7.53;3.78;;;5.40;99.90;5.90;98962.00;;;;4647015;30;87419;-58
2022/04/18 06:27:13;;;;;;;5.78;3.75;;;5.50;99.90;5.90;98978.00;;;;4632145;30;88316;-57
2022/04/18 06:29:40;;;;;;;9.02;4.13;;;5.60;99.90;6.00;98967.00;;;;4641352;30;88068;-56
2022/04/18 06:32:09;;;;;;;7.97;3.65;;;5.60;99.90;6.00;98972.00;;;;4623823;30;88294;-55
2022/04/18 06:34:36;;;;;;;6.85;3.40;;;5.60;99.90;6.00;98984.00;;;;4631077;30;86968;-57
2022/04/18 06:37:14;;;;;;;8.45;3.60;;;5.50;99.90;6.10;98973.00;;;;4631493;30;87146;-58
2022/04/18 06:40:07;;;;;;;10.82;3.78;;;5.60;99.90;6.10;98973.00;;;;4628135;30;87747;-58
2022/04/18 06:42:39;;;;;;;6.75;3.47;;;5.60;99.90;6.30;98974.00;;;;4631403;30;88131;-58
2022/04/18 06:45:12;;;;;;;7.45;3.30;;;5.80;99.90;6.30;98952.00;;;;4632391;30;86452;-57
2022/04/18 06:47:39;;;;;;;7.05;3.83;;;5.90;99.90;6.20;98977.00;;;;4632379;30;87131;-57
2022/04/18 06:50:10;;;;;;;21.08;3.80;;;5.80;99.90;6.30;98971.00;;;;4633034;30;87583;-59
2022/04/18 06:52:54;;;;;;;9.52;3.92;;;5.90;99.90;6.30;98976.00;;;;4632342;30;88302;-57
2022/04/18 06:58:39;;;;;;;12.43;3.80;;;5.80;99.90;6.30;98990.00;;;;4625614;30;87635;-55
2022/04/18 07:01:07;;;;;;;6.65;3.42;;;5.90;99.90;6.30;98985.00;;;;4631772;30;87624;-54
2022/04/18 07:03:34;;;;;;;5.28;3.10;;;5.90;99.90;6.20;98986.00;;;;4617414;30;87118;-58
2022/04/18 07:06:00;;;;;;;6.97;3.40;;;5.90;99.90;6.30;98982.00;;;;4633357;30;87252;-58
2022/04/18 07:08:26;;;;;;;7.93;3.33;;;5.90;99.90;6.40;99000.00;;;;4632361;30;87065;-58
2022/04/18 07:10:56;;;;;;;10.90;3.38;;;5.90;99.90;6.40;98992.00;;;;4631198;30;89372;-58
2022/04/18 07:13:22;;;;;;;6.97;3.03;;;5.90;99.90;6.20;98980.00;;;;4636684;30;87069;-57
2022/04/18 07:15:49;;;;;;;8.77;4.13;;;5.80;99.90;6.40;98976.00;;;;4631644;30;87004;-57
2022/04/18 07:18:17;;;;;;;9.18;4.03;;;5.90;99.90;6.50;98969.00;;;;4630723;30;88472;-58
2022/04/18 07:20:44;;;;;;;6.25;3.40;;;6.10;99.90;6.60;98975.00;;;;4617583;30;88814;-58
2022/04/18 07:23:10;;;;;;;6.90;3.45;;;6.20;99.90;6.70;98972.00;;;;4631487;30;87626;-57
2022/04/18 07:25:49;;;;;;;5.65;3.00;;;6.20;99.90;6.70;98990.00;;;;4633051;30;87703;-55
2022/04/18 07:28:23;;;;;;;6.57;3.70;;;6.20;99.90;6.70;98978.00;;;;4631722;30;87147;-57
2022/04/18 07:30:50;;;;;;;7.95;3.80;;;6.20;99.90;6.80;98963.00;;;;4646160;30;88762;-56
2022/04/18 07:33:16;;;;;;;7.47;4.30;;;6.30;99.90;6.70;98960.00;;;;4630828;30;87452;-55
2022/04/18 07:35:43;;;;;;;7.90;3.45;;;6.30;99.90;6.80;98982.00;;;;4631456;30;86817;-56
2022/04/18 07:41:04;;;;;;;7.97;2.92;;;6.30;99.90;7.00;98957.00;;;;4644842;30;88190;-57
2022/04/18 07:43:35;;;;;;;10.57;3.60;;;6.50;99.90;6.90;98970.00;;;;4630961;30;88266;-57
2022/04/18 07:46:04;;;;;;;7.57;3.45;;;6.50;99.90;6.90;98960.00;;;;4631195;30;86997;-57
2022/04/18 07:48:32;;;;;;;9.82;3.30;;;6.40;99.90;6.90;98953.00;;;;4630902;30;87191;-56
2022/04/18 07:53:45;;;;;;;10.52;3.08;;;6.50;99.90;7.10;98974.00;;;;4631188;30;90065;-58
2022/04/18 07:56:12;;;;;;;6.38;2.53;;;6.70;99.90;7.10;98984.00;;;;4631567;30;87076;-58
2022/04/18 07:58:38;;;;;;;5.18;2.60;;;6.60;99.90;7.10;98991.00;;;;4630698;30;87229;-56
2022/04/18 08:01:11;;;;;;;5.40;2.45;;;6.70;99.90;7.20;98970.00;;;;4631618;30;87503;-59
2022/04/18 08:03:37;;;;;;;9.02;2.20;;;6.70;99.90;7.20;98955.00;;;;4630806;30;87263;-57
2022/04/18 08:06:05;;;;;;;5.72;2.50;;;6.70;99.90;7.10;98974.00;;;;4631341;30;87066;-58
2022/04/18 08:08:40;;;;;;;6.55;2.17;;;6.70;99.90;7.20;98985.00;;;;4626592;30;88321;-56
2022/04/18 08:11:15;;;;;;;4.93;1.52;;;6.60;99.90;7.00;98944.00;;;;4645363;30;87594;-57
2022/04/18 08:13:45;;;;;;;6.57;1.63;;;6.50;99.70;7.10;98941.00;;;;4643782;30;87968;-56
2022/04/18 08:16:46;;;;;;;3.80;1.90;;;6.70;99.90;7.10;98952.00;;;;4625608;30;89090;-55
2022/04/18 08:19:28;;;;;;;4.07;1.83;;;6.70;99.80;7.20;98956.00;;;;4631159;30;87046;-57
2022/04/18 08:21:55;;;;;;;6.82;2.42;;;6.70;99.60;7.10;98960.00;;;;4631767;30;87949;-58
2022/04/18 08:24:22;;;;;;;5.78;2.17;;;6.70;99.90;7.40;98969.00;;;;4632769;30;87957;-56
2022/04/18 08:27:14;;;;;;;5.72;2.10;;;6.90;99.90;7.50;98937.00;;;;4628480;30;86773;-58
2022/04/18 08:29:53;;;;;;;7.20;2.20;;;6.90;99.90;7.60;98951.00;;;;4641360;30;87045;-58
2022/04/18 08:32:39;;;;;;;8.75;1.85;;;7.10;99.80;7.40;98961.00;;;;4635309;30;87607;-57
2022/04/18 08:35:07;;;;;;;13.18;2.15;;;6.90;99.00;7.40;98946.00;;;;4629509;30;88226;-57
2022/04/18 08:37:35;;;;;;;6.70;1.85;;;6.90;99.10;7.60;98942.00;;;;4629608;30;87671;-56
2022/04/18 08:40:27;;;;;;;8.18;2.05;;;7.10;99.90;7.90;98932.00;;;;4609189;30;87358;-58
2022/04/18 08:42:57;;;;;;;4.32;2.15;;;7.40;99.40;7.80;98964.00;;;;4633263;30;87526;-58
2022/04/18 08:45:27;;;;;;;6.80;2.10;;;7.30;98.10;8.00;98957.00;;;;4633172;30;87112;-57
2022/04/18 08:53:30;;;;;;;10.18;2.20;;;7.20;97.80;8.00;98942.00;;;;4633702;30;87360;-55
2022/04/18 08:55:59;;;;;;;4.88;2.20;;;7.40;97.40;8.10;98958.00;;;;4633008;30;87683;-57
2022/04/18 08:58:30;;;;;;;4.88;2.40;;;7.60;96.50;8.10;98935.00;;;;4632999;30;87165;-57
2022/04/18 09:01:00;;;;;;;6.07;2.13;;;7.40;96.20;8.00;98942.00;;;;4624512;30;87963;-57
2022/04/18 09:03:59;;;;;;;8.02;2.40;;;7.40;96.90;8.10;98939.00;;;;4633122;30;88693;-57
2022/04/18 09:06:39;;;;;;;6.60;2.28;;;7.50;96.80;8.20;98924.00;;;;4633244;30;87556;-58
2022/04/18 09:09:29;;;;;;;5.65;2.00;;;7.60;97.90;8.30;98923.00;;;;4633518;30;87550;-60
2022/04/18 09:12:22;;;;;;;6.72;1.98;;;7.70;95.90;8.20;98921.00;;;;4633687;30;87090;-55
2022/04/18 09:15:09;;;;;;;5.15;2.22;;;7.60;95.10;8.10;98921.00;;;;4632819;30;88621;-57
2022/04/18 09:17:38;;;;;;;8.60;1.92;;;7.50;96.00;8.20;98916.00;;;;4632211;30;87317;-59
2022/04/18 09:20:20;;;;;;;7.50;2.08;;;7.60;94.90;8.30;98900.00;;;;4634874;30;86181;-59
2022/04/18 09:22:50;;;;;;;4.20;2.07;;;7.80;95.40;8.30;98894.00;;;;4633526;30;87436;-57
2022/04/18 09:25:22;;;;;;;6.68;2.60;;;7.80;94.90;8.70;98889.00;;;;4635813;30;87875;-57
2022/04/18 09:27:58;;;;;;;7.47;2.30;;;8.00;94.80;8.80;98902.00;;;;4624934;30;88004;-58
2022/04/18 09:30:32;;;;;;;8.15;2.40;;;8.10;92.60;8.80;98899.00;;;;4647539;30;87047;-56
2022/04/18 09:33:06;;;;;;;6.75;2.00;;;8.20;93.00;9.00;98892.00;;;;4634135;30;87636;-57
2022/04/18 09:35:48;;;;;;;5.72;1.90;;;8.40;92.30;8.90;98897.00;;;;4632124;30;87816;-54
2022/04/18 09:38:18;;;;;;;7.15;2.17;;;8.30;93.00;9.00;98911.00;;;;4632373;30;87173;-55
2022/04/18 09:40:56;;;;;;;2.92;1.75;;;8.30;91.40;8.80;98919.00;;;;4633744;30;87046;-58
2022/04/18 09:43:47;;;;;;;4.75;2.03;;;8.20;92.10;8.80;98903.00;;;;4633089;30;87100;-57
2022/04/18 09:46:34;;;;;;;6.30;2.05;;;8.10;89.40;8.90;98891.00;;;;4627664;30;86981;-58
2022/04/18 09:49:12;;;;;;;8.43;2.30;;;8.20;90.30;8.80;98911.00;;;;4612956;30;88255;-58
2022/04/18 09:51:45;;;;;;;13.18;2.65;;;8.20;91.20;9.00;98891.00;;;;4630478;30;87150;-58
2022/04/18 09:54:14;;;;;;;5.10;2.00;;;8.40;90.60;9.10;98896.00;;;;4614094;30;88412;-58
2022/04/18 09:56:51;;;;;;;5.72;1.98;;;8.50;88.20;9.00;98903.00;;;;4633866;30;88110;-57
2022/04/18 09:59:19;;;;;;;12.40;2.30;;;8.40;88.50;9.00;98880.00;;;;4633772;30;87198;-56
2022/04/18 10:01:46;;;;;;;8.25;2.10;;;8.40;89.00;8.90;98877.00;;;;4633832;30;87041;-57
2022/04/18 10:04:12;;;;;;;2.95;1.65;;;8.40;88.70;8.90;98898.00;;;;4632399;30;87418;-58
2022/04/18 10:06:44;;;;;;;7.95;2.28;;;8.30;88.10;8.90;98901.00;;;;4633390;30;88805;-60
2022/04/18 10:09:15;;;;;;;5.68;2.22;;;8.30;88.70;9.00;98888.00;;;;4634015;30;88022;-58
2022/04/18 10:11:44;;;;;;;4.45;2.05;;;8.40;90.00;9.00;98881.00;;;;4666352;30;86459;-57
2022/04/18 10:14:11;;;;;;;5.80;2.30;;;8.40;89.70;9.20;98891.00;;;;4635845;30;87628;-59
2022/04/18 10:16:39;;;;;;;4.07;2.13;;;8.50;90.40;9.20;98898.00;;;;4633598;30;87608;-60
2022/04/18 10:19:38;;;;;;;3.75;2.05;;;8.50;88.00;9.20;98874.00;;;;4632360;30;89103;-56
2022/04/18 10:23:05;;;;;;;4.35;2.08;;;8.60;86.30;9.10;98883.00;;;;4632741;30;87332;-57
2022/04/18 10:26:03;;;;;;;5.32;2.15;;;8.50;87.30;8.80;98888.00;;;;4633925;30;87006;-57
2022/04/18 10:28:42;;;;;;;6.78;2.35;;;8.30;88.70;9.00;98867.00;;;;4624441;30;87616;-56
2022/04/18 10:31:18;;;;;;;8.05;2.53;;;8.40;88.60;9.00;98874.00;;;;4632974;30;87097;-63
2022/04/18 10:33:44;;;;;;;7.90;2.25;;;8.40;88.50;9.20;98871.00;;;;4633108;30;87043;-62
2022/04/18 10:36:12;;;;;;;5.07;1.80;;;8.60;90.00;9.30;98869.00;;;;4631883;30;87064;-64
2022/04/18 10:38:41;;;;;;;7.18;2.30;;;8.70;84.40;9.40;98876.00;;;;4632577;30;86614;-64
2022/04/18 10:41:32;;;;;;;7.13;2.50;;;8.80;86.50;9.30;98873.00;;;;4631907;30;87897;-65
2022/04/18 10:44:01;;;;;;;5.93;2.13;;;8.80;87.60;9.50;98871.00;;;;4630944;30;87287;-65
2022/04/18 10:46:28;;;;;;;6.57;2.20;;;8.90;87.30;9.60;98861.00;;;;4632327;30;88055;-65
2022/04/18 10:49:12;;;;;;;7.75;2.30;;;9.00;85.90;9.60;98892.00;;;;4632928;30;88105;-64
2022/04/18 10:51:40;;;;;;;4.65;1.98;;;9.00;86.50;9.50;98862.00;;;;4632914;30;87068;-64
2022/04/18 10:54:25;;;;;;;5.25;2.20;;;9.00;83.90;9.40;98866.00;;;;4633131;30;87031;-64
2022/04/18 10:56:55;;;;;;;8.05;2.58;;;8.90;82.80;9.50;98869.00;;;;4633708;30;87006;-63
2022/04/18 10:59:37;;;;;;;5.72;2.65;;;8.90;83.10;9.40;98844.00;;;;4631855;30;89811;-64
2022/04/18 11:02:06;;;;;;;3.97;2.20;;;8.80;84.70;9.20;98851.00;;;;4638438;30;87232;-66
2022/04/18 11:04:39;;;;;;;6.20;2.30;;;8.70;85.40;9.10;98863.00;;;;4632193;30;86536;-64
2022/04/18 11:07:10;;;;;;;5.82;2.10;;;8.60;86.30;9.40;98845.00;;;;4632183;30;87455;-65
2022/04/18 11:09:45;;;;;;;5.40;2.30;;;8.80;86.90;9.60;98859.00;;;;4632987;30;87715;-64
2022/04/18 11:12:15;;;;;;;5.50;1.83;;;9.00;85.60;9.50;98863.00;;;;4640057;30;87976;-64
2022/04/18 11:15:02;;;;;;;3.50;1.85;;;9.00;81.10;9.50;98869.00;;;;4633423;30;86959;-64
2022/04/18 11:17:37;;;;;;;4.32;1.80;;;8.90;80.90;9.50;98844.00;;;;4616107;30;86954;-64
2022/04/18 11:20:36;;;;;;;5.63;2.30;;;8.90;81.80;9.60;98857.00;;;;4630981;30;87254;-62
2022/04/18 11:23:21;;;;;;;5.78;2.38;;;9.00;83.30;9.60;98848.00;;;;4633008;30;87276;-63
2022/04/18 11:25:57;;;;;;;6.38;2.35;;;9.00;82.40;9.90;98847.00;;;;4635987;30;86973;-64
2022/04/18 11:28:32;;;;;;;6.63;2.50;;;9.20;84.20;10.00;98855.00;;;;4632623;30;86892;-64
2022/04/18 11:30:58;;;;;;;4.85;2.30;;;9.40;81.50;9.80;98856.00;;;;4633389;30;86370;-64
2022/04/18 11:33:25;;;;;;;6.57;2.28;;;9.20;80.60;9.90;98841.00;;;;4631958;30;87414;-64
2022/04/18 11:36:00;;;;;;;10.32;2.50;;;9.20;82.60;9.80;98842.00;;;;4631291;30;87402;-64
2022/04/18 11:38:26;;;;;;;8.77;2.50;;;9.30;82.60;10.00;98837.00;;;;4631227;30;87971;-64
2022/04/18 11:40:52;;;;;;;8.70;2.00;;;9.40;83.90;9.90;98847.00;;;;4631799;30;88700;-64
2022/04/18 11:43:18;;;;;;;4.50;2.00;;;9.30;80.30;9.80;98845.00;;;;4632172;30;87555;-64
2022/04/18 11:45:44;;;;;;;6.88;2.20;;;9.20;81.40;9.80;98851.00;;;;4632206;30;87060;-65
2022/04/18 11:48:14;;;;;;;7.78;2.03;;;9.20;78.60;9.90;98853.00;;;;4632196;30;87380;-64
2022/04/18 11:50:43;;;;;;;4.38;1.88;;;9.30;81.80;10.00;98830.00;;;;4631544;30;87720;-62
2022/04/18 11:53:12;;;;;;;4.72;2.00;;;9.40;79.30;10.00;98825.00;;;;4631371;30;87560;-65